Wetterstation Vordersexau
Wetterdaten: Woche 26.12.11 - 01.01.12 (KW52)
Datum Zeit Temp. A. Feuchte A. Luftdruck Regen Wind Richtung Taupunkt Windchill Windben
26.12.2011 00:00 3,4 C 87 % 1036,2 hPa 0,0 l/m 0,0 km/h SO 1,4 C 3,4 C 0,0 km/h
26.12.2011 01:00 3,6 C 87 % 1036,2 hPa 0,0 l/m 0,0 km/h SO 1,6 C 3,6 C 0,0 km/h
26.12.2011 02:00 3,5 C 87 % 1036,7 hPa 0,0 l/m 0,0 km/h SO 1,5 C 3,5 C 0,0 km/h
26.12.2011 03:00 3,7 C 86 % 1036,6 hPa 0,0 l/m 2,6 km/h O-SO 1,6 C 3,7 C 1,4 km/h
26.12.2011 04:00 3,4 C 87 % 1036,2 hPa 0,0 l/m 0,0 km/h O-SO 1,4 C 3,4 C 0,0 km/h
26.12.2011 05:00 2,6 C 86 % 1036,6 hPa 0,0 l/m 0,0 km/h O-SO 0,5 C 2,6 C 0,0 km/h
26.12.2011 06:00 1,8 C 87 % 1036,9 hPa 0,0 l/m 0,0 km/h O-SO -0,1 C 1,8 C 0,0 km/h
26.12.2011 07:00 0,6 C 87 % 1036,6 hPa 0,0 l/m 0,0 km/h O-SO -1,3 C 0,6 C 0,0 km/h
26.12.2011 08:00 -0,2 C 87 % 1036,7 hPa 0,0 l/m 0,0 km/h NO -2,1 C -0,2 C 0,0 km/h
26.12.2011 09:00 4,4 C 81 % 1036,8 hPa 0,0 l/m 0,0 km/h NW 1,4 C 4,4 C 0,0 km/h
26.12.2011 10:00 6,8 C 82 % 1037,4 hPa 0,0 l/m 0,0 km/h W-NW 3,9 C 6,8 C 0,0 km/h
26.12.2011 11:00 9,6 C 76 % 1037,1 hPa 0,0 l/m 0,0 km/h NW 5,6 C 9,6 C 0,0 km/h
26.12.2011 12:00 9,9 C 73 % 1036,5 hPa 0,0 l/m 0,0 km/h W 5,3 C 9,9 C 0,0 km/h
26.12.2011 13:00 10,2 C 72 % 1036,2 hPa 0,0 l/m 0,0 km/h N 5,4 C 10,2 C 0,0 km/h
26.12.2011 14:00 11,9 C 69 % 1035,7 hPa 0,0 l/m 0,0 km/h SO 6,4 C 11,9 C 0,0 km/h
26.12.2011 15:00 13,4 C 64 % 1035,7 hPa 0,0 l/m 0,0 km/h SO 6,7 C 13,4 C 0,0 km/h
26.12.2011 16:00 8,9 C 71 % 1035,5 hPa 0,0 l/m 0,0 km/h O-NO 3,9 C 8,9 C 0,0 km/h
26.12.2011 17:00 3,2 C 84 % 1035,5 hPa 0,0 l/m 0,0 km/h SO 0,8 C 3,2 C 0,0 km/h
26.12.2011 18:00 1,9 C 86 % 1035,8 hPa 0,0 l/m 0,0 km/h O-NO -0,2 C 1,9 C 0,0 km/h
26.12.2011 19:00 1,3 C 86 % 1035,7 hPa 0,0 l/m 0,0 km/h O-NO -0,8 C 1,3 C 0,0 km/h
26.12.2011 20:00 0,5 C 87 % 1035,7 hPa 0,0 l/m 0,0 km/h NO -1,4 C 0,5 C 0,0 km/h
26.12.2011 21:00 0,7 C 87 % 1035,8 hPa 0,0 l/m 0,0 km/h O-SO -1,2 C 0,7 C 0,0 km/h
26.12.2011 22:00 0,4 C 87 % 1035,6 hPa 0,0 l/m 0,0 km/h SO -1,5 C 0,4 C 0,0 km/h
26.12.2011 23:00 0,0 C 86 % 1035,5 hPa 0,0 l/m 0,0 km/h O-SO -2,1 C 0,0 C 0,0 km/h
27.12.2011 00:00 -0,2 C 86 % 1035,6 hPa 0,0 l/m 0,0 km/h O -2,3 C -0,2 C 0,0 km/h
27.12.2011 01:00 0,4 C 86 % 1035,3 hPa 0,0 l/m 0,0 km/h O-SO -1,7 C 0,4 C 0,0 km/h
27.12.2011 02:00 -0,4 C 86 % 1035,2 hPa 0,0 l/m 0,0 km/h O-SO -2,4 C -0,4 C 0,0 km/h
27.12.2011 03:00 -0,2 C 85 % 1034,9 hPa 0,0 l/m 0,0 km/h O -2,4 C -0,2 C 0,0 km/h
27.12.2011 04:00 -1,0 C 86 % 1034,3 hPa 0,0 l/m 0,0 km/h O-SO -3,0 C -1,0 C 0,0 km/h
27.12.2011 05:00 -0,1 C 85 % 1034,5 hPa 0,0 l/m 0,0 km/h O-SO -2,3 C -0,1 C 0,0 km/h
27.12.2011 06:00 1,1 C 84 % 1034,6 hPa 0,0 l/m 0,0 km/h O -1,3 C 1,1 C 0,0 km/h
27.12.2011 07:00 1,6 C 83 % 1034,9 hPa 0,0 l/m 0,0 km/h O-SO -1,0 C 1,6 C 0,0 km/h
27.12.2011 08:00 2,2 C 82 % 1034,9 hPa 0,0 l/m 0,0 km/h O-SO -0,5 C 2,2 C 0,0 km/h
27.12.2011 09:00 2,7 C 81 % 1035,2 hPa 0,0 l/m 0,0 km/h O-SO -0,2 C 2,7 C 0,0 km/h
27.12.2011 10:00 3,5 C 79 % 1035,5 hPa 0,0 l/m 0,0 km/h SO 0,2 C 3,5 C 0,0 km/h
27.12.2011 11:00 4,3 C 79 % 1035,1 hPa 0,0 l/m 0,0 km/h O-SO 1,0 C 4,3 C 0,0 km/h
27.12.2011 12:00 4,5 C 79 % 1034,5 hPa 0,0 l/m 0,0 km/h W 1,2 C 4,5 C 0,0 km/h
27.12.2011 13:00 4,2 C 82 % 1034,4 hPa 0,0 l/m 0,0 km/h O-NO 1,4 C 4,2 C 0,0 km/h
27.12.2011 14:00 4,4 C 84 % 1033,9 hPa 0,0 l/m 0,0 km/h SW 1,9 C 4,4 C 0,0 km/h
27.12.2011 15:00 4,2 C 85 % 1033,7 hPa 0,0 l/m 0,0 km/h N-NW 1,9 C 4,2 C 0,0 km/h
27.12.2011 16:00 3,9 C 86 % 1033,8 hPa 0,0 l/m 0,0 km/h S-SO 1,8 C 3,9 C 0,0 km/h
27.12.2011 17:00 3,7 C 86 % 1033,9 hPa 0,0 l/m 0,0 km/h S-SO 1,6 C 3,7 C 0,0 km/h
27.12.2011 18:00 3,5 C 85 % 1033,8 hPa 0,0 l/m 0,0 km/h S 1,2 C 3,5 C 0,0 km/h
27.12.2011 19:00 3,3 C 85 % 1033,8 hPa 0,0 l/m 0,0 km/h S 1,0 C 3,3 C 0,0 km/h
27.12.2011 20:00 3,3 C 84 % 1033,4 hPa 0,0 l/m 0,0 km/h S 0,9 C 3,3 C 0,0 km/h
27.12.2011 21:00 3,2 C 84 % 1033,4 hPa 0,0 l/m 0,0 km/h SO 0,8 C 3,2 C 0,0 km/h
27.12.2011 22:00 3,1 C 84 % 1032,7 hPa 0,0 l/m 0,0 km/h S-SO 0,7 C 3,1 C 0,0 km/h
27.12.2011 23:00 2,9 C 84 % 1032,7 hPa 0,0 l/m 0,0 km/h S-SO 0,5 C 2,9 C 0,0 km/h
28.12.2011 00:00 2,8 C 84 % 1032,3 hPa 0,0 l/m 0,0 km/h S-SO 0,4 C 2,8 C 0,0 km/h
28.12.2011 01:00 2,4 C 84 % 1031,8 hPa 0,0 l/m 2,6 km/h S-SW -0,0 C 2,4 C 1,4 km/h
28.12.2011 02:00 2,3 C 83 % 1031,5 hPa 0,0 l/m 0,0 km/h W-SW -0,3 C 2,3 C 0,0 km/h
28.12.2011 03:00 2,1 C 83 % 1031,0 hPa 0,0 l/m 0,0 km/h SO -0,5 C 2,1 C 0,0 km/h
28.12.2011 04:00 1,8 C 83 % 1030,3 hPa 0,0 l/m 0,0 km/h S-SO -0,8 C 1,8 C 0,0 km/h
28.12.2011 05:00 1,6 C 83 % 1029,8 hPa 0,0 l/m 0,0 km/h SO -1,0 C 1,6 C 0,0 km/h
28.12.2011 06:00 1,5 C 83 % 1029,4 hPa 0,0 l/m 0,0 km/h S-SO -1,1 C 1,5 C 0,0 km/h
28.12.2011 07:00 1,3 C 82 % 1029,1 hPa 0,0 l/m 0,0 km/h S-SO -1,4 C 1,3 C 0,0 km/h
28.12.2011 08:00 0,9 C 82 % 1028,2 hPa 0,0 l/m 0,0 km/h NO -1,8 C 0,9 C 0,0 km/h
28.12.2011 09:00 1,1 C 81 % 1027,5 hPa 0,0 l/m 0,0 km/h O-NO -1,8 C 1,1 C 0,0 km/h
28.12.2011 10:00 1,9 C 80 % 1027,7 hPa 0,0 l/m 0,0 km/h NO -1,2 C 1,9 C 0,0 km/h
28.12.2011 11:00 7,8 C 85 % 1026,6 hPa 0,0 l/m 0,0 km/h O-NO 5,4 C 7,8 C 0,0 km/h
28.12.2011 12:00 9,1 C 79 % 1026,1 hPa 0,0 l/m 0,0 km/h NO 5,7 C 9,1 C 0,0 km/h
28.12.2011 13:00 9,5 C 71 % 1025,4 hPa 0,0 l/m 0,0 km/h S-SO 4,5 C 9,5 C 0,0 km/h
28.12.2011 14:00 10,8 C 68 % 1024,7 hPa 0,0 l/m 0,0 km/h S 5,1 C 10,8 C 0,0 km/h
28.12.2011 15:00 10,8 C 67 % 1023,9 hPa 0,0 l/m 0,0 km/h W-SW 4,9 C 10,8 C 0,0 km/h
28.12.2011 16:00 8,6 C 63 % 1024,1 hPa 0,0 l/m 33,7 km/h SW 2,0 C -2,1 C 18,7 km/h
28.12.2011 17:00 7,5 C 64 % 1023,6 hPa 0,0 l/m 18,1 km/h NW 1,1 C 0,8 C 10,1 km/h
28.12.2011 18:00 6,3 C 67 % 1024,0 hPa 0,0 l/m 5,8 km/h NO 0,6 C 6,3 C 3,2 km/h
28.12.2011 19:00 3,9 C 76 % 1024,1 hPa 0,0 l/m 0,0 km/h NO 0,1 C 3,9 C 0,0 km/h
28.12.2011 20:00 1,9 C 81 % 1024,2 hPa 0,0 l/m 0,0 km/h O-SO -1,0 C 1,9 C 0,0 km/h
28.12.2011 21:00 1,3 C 83 % 1024,2 hPa 0,0 l/m 0,0 km/h O-SO -1,3 C 1,3 C 0,0 km/h
28.12.2011 22:00 3,8 C 84 % 1023,6 hPa 0,0 l/m 0,0 km/h W 1,4 C 3,8 C 0,0 km/h
28.12.2011 23:00 5,8 C 79 % 1023,7 hPa 0,0 l/m 23,3 km/h W-SW 2,4 C -3,3 C 13,0 km/h
29.12.2011 00:00 5,9 C 79 % 1024,1 hPa 0,0 l/m 24,6 km/h W-SW 2,5 C -3,6 C 13,7 km/h
29.12.2011 01:00 5,7 C 82 % 1024,3 hPa 0,0 l/m 10,4 km/h W-NW 2,9 C 2,6 C 5,8 km/h
29.12.2011 02:00 4,9 C 85 % 1024,7 hPa 0,0 l/m 18,1 km/h N-NW 2,6 C -2,5 C 10,1 km/h
29.12.2011 03:00 4,8 C 86 % 1025,1 hPa 0,0 l/m 0,0 km/h W-NW 2,7 C 4,8 C 0,0 km/h
29.12.2011 04:00 4,4 C 86 % 1025,0 hPa 0,0 l/m 0,0 km/h NO 2,3 C 4,4 C 0,0 km/h
29.12.2011 05:00 4,3 C 86 % 1024,9 hPa 0,0 l/m 0,0 km/h O-SO 2,2 C 4,3 C 0,0 km/h
29.12.2011 06:00 3,6 C 86 % 1025,3 hPa 0,0 l/m 0,0 km/h SO 1,5 C 3,6 C 0,0 km/h
29.12.2011 07:00 2,9 C 86 % 1025,7 hPa 0,0 l/m 0,0 km/h SO 0,8 C 2,9 C 0,0 km/h
29.12.2011 08:00 2,8 C 86 % 1025,9 hPa 0,0 l/m 0,0 km/h W-SW 0,7 C 2,8 C 0,0 km/h
29.12.2011 09:00 3,5 C 85 % 1026,2 hPa 0,0 l/m 0,0 km/h W 1,2 C 3,5 C 0,0 km/h
29.12.2011 10:00 4,7 C 87 % 1026,4 hPa 0,0 l/m 11,7 km/h W 2,7 C 0,6 C 6,5 km/h
29.12.2011 11:00 5,8 C 83 % 1025,7 hPa 0,0 l/m 4,5 km/h SW 3,1 C 5,8 C 2,5 km/h
29.12.2011 12:00 6,4 C 80 % 1025,2 hPa 0,0 l/m 33,7 km/h W-SW 3,2 C -5,3 C 18,7 km/h
29.12.2011 13:00 5,8 C 79 % 1024,6 hPa 0,0 l/m 20,7 km/h W-SW 2,4 C -2,4 C 11,5 km/h
29.12.2011 14:00 5,9 C 78 % 1024,2 hPa 0,0 l/m 24,6 km/h W 2,4 C -3,6 C 13,7 km/h
29.12.2011 15:00 5,9 C 78 % 1023,9 hPa 0,0 l/m 9,7 km/h W 2,4 C 3,3 C 5,4 km/h
29.12.2011 16:00 5,2 C 76 % 1023,7 hPa 0,0 l/m 20,7 km/h W 1,3 C -3,2 C 11,5 km/h
29.12.2011 17:00 4,7 C 80 % 1023,5 hPa 0,0 l/m 16,8 km/h W-SW 1,6 C -2,2 C 9,4 km/h
29.12.2011 18:00 4,9 C 77 % 1022,9 hPa 0,0 l/m 35,0 km/h W 1,2 C -7,7 C 19,4 km/h
29.12.2011 19:00 5,0 C 77 % 1022,6 hPa 0,0 l/m 31,1 km/h W-SW 1,3 C -6,7 C 17,3 km/h
29.12.2011 20:00 4,9 C 77 % 1021,9 hPa 0,0 l/m 27,9 km/h W-SW 1,2 C -5,9 C 15,5 km/h
29.12.2011 21:00 4,8 C 77 % 1020,8 hPa 0,0 l/m 29,2 km/h W 1,1 C -6,4 C 16,2 km/h
29.12.2011 22:00 4,9 C 75 % 1019,2 hPa 0,0 l/m 22,7 km/h W-SW 0,8 C -4,3 C 12,6 km/h
29.12.2011 23:00 4,8 C 78 % 1018,2 hPa 0,0 l/m 43,4 km/h W 1,3 C -9,4 C 24,1 km/h
30.12.2011 00:00 3,8 C 84 % 1016,7 hPa 0,0 l/m 42,1 km/h W-SW 1,4 C -10,7 C 23,4 km/h
30.12.2011 01:00 3,9 C 84 % 1015,1 hPa 0,0 l/m 31,1 km/h SW 1,4 C -8,2 C 17,3 km/h
30.12.2011 02:00 3,8 C 85 % 1013,7 hPa 0,0 l/m 33,7 km/h W-SW 1,5 C -9,0 C 18,7 km/h
30.12.2011 03:00 3,5 C 86 % 1012,4 hPa 0,0 l/m 41,5 km/h W 1,4 C -11,0 C 23,0 km/h
30.12.2011 04:00 3,9 C 85 % 1012,0 hPa 0,0 l/m 27,9 km/h W 1,6 C -7,3 C 15,5 km/h
30.12.2011 05:00 3,3 C 86 % 1012,4 hPa 1,1 l/m 2,6 km/h W 1,2 C 3,3 C 1,4 km/h
30.12.2011 06:00 3,5 C 86 % 1012,6 hPa 0,0 l/m 9,7 km/h W-NW 1,4 C 0,6 C 5,4 km/h
30.12.2011 07:00 3,8 C 86 % 1013,2 hPa 0,0 l/m 11,7 km/h W 1,7 C -0,4 C 6,5 km/h
30.12.2011 08:00 3,6 C 87 % 1013,6 hPa 0,0 l/m 13,6 km/h N-NW 1,6 C -1,8 C 7,6 km/h
30.12.2011 09:00 3,1 C 87 % 1014,5 hPa 0,0 l/m 0,0 km/h W 1,2 C 3,1 C 0,0 km/h
30.12.2011 10:00 3,9 C 87 % 1015,4 hPa 0,0 l/m 12,3 km/h O-NO 1,9 C -0,7 C 6,8 km/h
30.12.2011 11:00 3,9 C 84 % 1015,8 hPa 0,4 l/m 0,0 km/h S 1,4 C 3,9 C 0,0 km/h
30.12.2011 12:00 4,6 C 86 % 1016,2 hPa 0,0 l/m 6,5 km/h S 2,5 C 4,5 C 3,6 km/h
30.12.2011 13:00 5,9 C 80 % 1016,1 hPa 0,0 l/m 0,0 km/h SW 2,7 C 5,9 C 0,0 km/h
30.12.2011 14:00 5,5 C 79 % 1016,0 hPa 0,0 l/m 16,8 km/h W-SW 2,2 C -1,2 C 9,4 km/h
30.12.2011 15:00 7,3 C 73 % 1016,7 hPa 0,0 l/m 12,3 km/h W-SW 2,8 C 3,2 C 6,8 km/h
30.12.2011 16:00 4,2 C 79 % 1017,2 hPa 0,0 l/m 0,0 km/h SW 0,9 C 4,2 C 0,0 km/h
30.12.2011 17:00 3,6 C 81 % 1017,9 hPa 0,0 l/m 0,0 km/h W 0,7 C 3,6 C 0,0 km/h
30.12.2011 18:00 3,3 C 82 % 1018,5 hPa 0,0 l/m 0,0 km/h W-SW 0,5 C 3,3 C 0,0 km/h
30.12.2011 19:00 2,2 C 83 % 1018,7 hPa 0,0 l/m 0,0 km/h O-NO -0,4 C 2,2 C 0,0 km/h
30.12.2011 20:00 1,3 C 86 % 1018,6 hPa 0,0 l/m 0,0 km/h NO -0,8 C 1,3 C 0,0 km/h
30.12.2011 21:00 1,0 C 87 % 1018,6 hPa 0,0 l/m 0,0 km/h SW -0,9 C 1,0 C 0,0 km/h
30.12.2011 22:00 1,4 C 87 % 1017,9 hPa 0,0 l/m 3,2 km/h SW -0,5 C 1,4 C 1,8 km/h
30.12.2011 23:00 3,3 C 83 % 1017,3 hPa 0,0 l/m 3,2 km/h SW 0,7 C 3,3 C 1,8 km/h
31.12.2011 00:00 3,8 C 82 % 1016,8 hPa 0,0 l/m 18,8 km/h SW 1,0 C -4,2 C 10,4 km/h
31.12.2011 01:00 3,1 C 86 % 1016,4 hPa 0,0 l/m 18,8 km/h W 1,0 C -5,1 C 10,4 km/h
31.12.2011 02:00 2,6 C 86 % 1016,3 hPa 0,0 l/m 2,6 km/h S 0,5 C 2,6 C 1,4 km/h
31.12.2011 03:00 2,5 C 86 % 1015,6 hPa 0,4 l/m 13,0 km/h S-SO 0,4 C -2,8 C 7,2 km/h
31.12.2011 04:00 2,6 C 86 % 1014,2 hPa 0,4 l/m 1,9 km/h NO 0,5 C 2,6 C 1,1 km/h
31.12.2011 05:00 3,3 C 87 % 1013,1 hPa 0,4 l/m 0,0 km/h S-SO 1,3 C 3,3 C 0,0 km/h
31.12.2011 06:00 3,5 C 86 % 1012,5 hPa 0,7 l/m 0,0 km/h O-SO 1,4 C 3,5 C 0,0 km/h
31.12.2011 07:00 3,8 C 85 % 1012,5 hPa 0,4 l/m 0,0 km/h NW 1,5 C 3,8 C 0,0 km/h
31.12.2011 08:00 4,5 C 85 % 1012,7 hPa 0,0 l/m 1,3 km/h W-NW 2,2 C 4,5 C 0,7 km/h
31.12.2011 09:00 5,4 C 84 % 1013,1 hPa 0,7 l/m 3,2 km/h SW 2,9 C 5,4 C 1,8 km/h
31.12.2011 10:00 5,8 C 84 % 1013,5 hPa 1,1 l/m 0,0 km/h NO 3,3 C 5,8 C 0,0 km/h
31.12.2011 11:00 6,2 C 84 % 1013,4 hPa 0,7 l/m 0,0 km/h SO 3,7 C 6,2 C 0,0 km/h
31.12.2011 12:00 6,4 C 84 % 1013,0 hPa 0,4 l/m 0,0 km/h W 3,9 C 6,4 C 0,0 km/h
31.12.2011 13:00 7,5 C 85 % 1012,9 hPa 0,0 l/m 0,0 km/h W-NW 5,1 C 7,5 C 0,0 km/h
31.12.2011 14:00 7,8 C 86 % 1013,3 hPa 0,4 l/m 0,0 km/h O-NO 5,6 C 7,8 C 0,0 km/h
31.12.2011 15:00 7,8 C 86 % 1013,4 hPa 0,0 l/m 0,0 km/h SO 5,6 C 7,8 C 0,0 km/h
31.12.2011 16:00 7,1 C 86 % 1013,8 hPa 0,0 l/m 0,0 km/h O-NO 4,9 C 7,1 C 0,0 km/h
31.12.2011 17:00 7,2 C 85 % 1014,3 hPa 0,4 l/m 0,0 km/h S 4,9 C 7,2 C 0,0 km/h
31.12.2011 18:00 7,9 C 82 % 1014,4 hPa 0,0 l/m 0,0 km/h W-SW 5,0 C 7,9 C 0,0 km/h
31.12.2011 19:00 9,8 C 83 % 1014,8 hPa 0,0 l/m 15,6 km/h W-SW 7,1 C 4,6 C 8,6 km/h
31.12.2011 20:00 9,9 C 85 % 1015,1 hPa 0,0 l/m 1,9 km/h W-NW 7,5 C 9,9 C 1,1 km/h
31.12.2011 21:00 10,1 C 85 % 1015,1 hPa 0,0 l/m 21,4 km/h W 7,7 C 3,0 C 11,9 km/h
31.12.2011 22:00 10,6 C 86 % 1015,2 hPa 0,0 l/m 13,6 km/h W-SW 8,4 C 6,5 C 7,6 km/h
31.12.2011 23:00 10,9 C 86 % 1015,5 hPa 0,0 l/m 14,9 km/h W-SW 8,7 C 6,3 C 8,3 km/h
01.01.2012 00:00 10,4 C 86 % 1015,5 hPa 0,4 l/m 25,3 km/h W-SW 8,2 C 2,3 C 14,0 km/h
01.01.2012 01:00 10,4 C 86 % 1015,7 hPa 0,0 l/m 13,6 km/h W-SW 8,2 C 6,2 C 7,6 km/h
01.01.2012 02:00 11,1 C 86 % 1015,9 hPa 0,0 l/m 31,1 km/h W 8,8 C 2,0 C 17,3 km/h
01.01.2012 03:00 11,1 C 86 % 1015,8 hPa 0,0 l/m 25,9 km/h W 8,8 C 3,1 C 14,4 km/h
01.01.2012 04:00 11,1 C 86 % 1016,0 hPa 0,0 l/m 18,1 km/h W 8,8 C 5,3 C 10,1 km/h
01.01.2012 05:00 11,3 C 86 % 1016,0 hPa 0,0 l/m 20,7 km/h S-SW 9,0 C 4,8 C 11,5 km/h
01.01.2012 06:00 11,6 C 84 % 1016,1 hPa 0,0 l/m 35,0 km/h W-SW 9,0 C 2,0 C 19,4 km/h
01.01.2012 07:00 11,6 C 84 % 1016,5 hPa 0,0 l/m 18,8 km/h W-SW 9,0 C 5,7 C 10,4 km/h
01.01.2012 08:00 11,9 C 84 % 1016,7 hPa 0,0 l/m 24,0 km/h SW 9,3 C 4,7 C 13,3 km/h
01.01.2012 09:00 12,3 C 83 % 1017,0 hPa 0,0 l/m 36,3 km/h W-SW 9,5 C 2,8 C 20,2 km/h
01.01.2012 10:00 12,6 C 82 % 1017,3 hPa 0,0 l/m 20,7 km/h W-SW 9,6 C 6,4 C 11,5 km/h
01.01.2012 11:00 13,0 C 81 % 1017,0 hPa 0,0 l/m 20,1 km/h SW 9,8 C 7,1 C 11,2 km/h
01.01.2012 13:00 13,3 C 81 % 1015,8 hPa 0,0 l/m 17,5 km/h SW 10,1 C 8,3 C 9,7 km/h
01.01.2012 14:00 13,1 C 81 % 1015,4 hPa 0,0 l/m 21,4 km/h W-SW 9,9 C 6,9 C 11,9 km/h
01.01.2012 15:00 13,5 C 80 % 1015,3 hPa 0,0 l/m 33,0 km/h W 10,1 C 5,1 C 18,4 km/h
01.01.2012 16:00 12,4 C 83 % 1015,6 hPa 0,0 l/m 22,7 km/h SW 9,6 C 5,6 C 12,6 km/h
01.01.2012 17:00 12,2 C 83 % 1015,5 hPa 0,0 l/m 24,0 km/h W-SW 9,4 C 5,1 C 13,3 km/h
01.01.2012 18:00 12,6 C 81 % 1015,2 hPa 0,0 l/m 11,0 km/h S-SW 9,4 C 10,0 C 6,1 km/h
01.01.2012 19:00 12,9 C 78 % 1014,9 hPa 0,0 l/m 20,1 km/h W-SW 9,2 C 7,0 C 11,2 km/h
01.01.2012 20:00 12,9 C 78 % 1015,0 hPa 0,0 l/m 31,8 km/h W-SW 9,2 C 4,4 C 17,6 km/h
01.01.2012 21:00 12,9 C 78 % 1014,5 hPa 0,0 l/m 21,4 km/h S-SW 9,2 C 6,6 C 11,9 km/h
01.01.2012 22:00 12,5 C 78 % 1013,8 hPa 0,0 l/m 25,3 km/h W-SW 8,8 C 5,2 C 14,0 km/h
01.01.2012 23:00 12,1 C 79 % 1012,9 hPa 0,0 l/m 18,8 km/h NO 8,6 C 6,4 C 10,4 km/h
Min-Datum _ 27.12.11 28.12.11 30.12.11 - 26.12.11 - 27.12.11 30.12.11 26.12.11
_ Min-Zeit 04:30 16:30 04:30 - 00:30 - 04:30 03:30 00:30
Minimum _ -1,0 C 63 % 1012,0 hPa - 0,0 km/h - -3,0 C -11,0 C 0,0 km/h
Max-Datum _ 01.01.12 26.12.11 26.12.11 30.12.11 29.12.11 - 01.01.12 26.12.11 29.12.11
_ Max-Zeit 15:30 00:30 10:30 05:30 23:30 - 15:30 15:30 23:30
Maximum _ 13,5 C 87 % 1037,4 hPa 1,1 l/m 43,4 km/h
W
- 10,1 C 13,4 C 24,1 km/h
W
Durchschnitt _ 5,4 C 82 % 1023,9 hPa #7,5 l/m 8,4 km/h W-SW 2,6 C 2,7 C 4,7 km/h
www.sexauwetter.de